This is the latest recevied weather packets stored in our database for station/object W8KHW. If no packets are shown the sender has not sent any weather packets the latest 10 day(s).
| Time | Temp. | Humidity | Pressure | Rain* | Wind** | Luminosity | Snow |
|---|---|---|---|---|---|---|---|
| 1778241096 | 10° C | 70% | 1014.7 hPa | 0 mm | - | - | - |
| 1778240596 | 10° C | 72% | 1014.3 hPa | 0 mm | - | - | - |
| 1778240096 | 8.89° C | 76% | 1014.4 hPa | 0 mm | - | - | - |
| 1778239596 | 7.78° C | 78% | 1014.1 hPa | 0 mm | - | - | - |
| 1778239095 | 7.22° C | 83% | 1014.2 hPa | 0 mm | - | - | - |
| 1778238595 | 6.67° C | 83% | 1014.4 hPa | 0 mm | - | - | - |
| 1778238095 | 6.11° C | 84% | 1014.5 hPa | 0 mm | - | - | - |
| 1778237595 | 6.11° C | 85% | 1014.4 hPa | 0 mm | - | - | - |
| 1778237095 | 5.56° C | 86% | 1014 hPa | 0 mm | - | - | - |
| 1778236594 | 5.56° C | 87% | 1014.1 hPa | 0 mm | - | - | - |
| 1778236094 | 5° C | 88% | 1013.9 hPa | 0 mm | - | - | - |
| 1778235594 | 5° C | 89% | 1013.9 hPa | 0 mm | - | - | - |
| 1778235094 | 5° C | 89% | 1013.8 hPa | 0 mm | - | - | - |
| 1778234594 | 5° C | 89% | 1013.8 hPa | 0 mm | - | - | - |
| 1778234093 | 5° C | 89% | 1013.8 hPa | 0 mm | - | - | - |
| 1778233593 | 5° C | 89% | 1014 hPa | 0 mm | - | - | - |
| 1778233093 | 5° C | 89% | 1013.9 hPa | 0 mm | - | - | - |
| 1778232593 | 5.56° C | 89% | 1013.8 hPa | 0 mm | - | - | - |
| 1778232093 | 5° C | 89% | 1014 hPa | 0 mm | - | - | - |
| 1778231593 | 5° C | 89% | 1014.1 hPa | 0 mm | - | - | - |
| 1778231093 | 5° C | 89% | 1013.9 hPa | 0 mm | - | - | - |
| 1778230593 | 5.56° C | 88% | 1014.2 hPa | 0 mm | - | - | - |
| 1778230092 | 5.56° C | 88% | 1014.1 hPa | 0 mm | - | - | - |
| 1778229592 | 5.56° C | 88% | 1014.3 hPa | 0 mm | - | - | - |
| 1778229092 | 5.56° C | 87% | 1013.9 hPa | 0 mm | - | - | - |
* Rain latest hour (hover to see other rain measurements)
** Current wind speed in m/s (hover to see current wind gust speed)